Terminal Aerodrome Forecast
Issued by NWS Mobile, AL

Home | Current Version | Previous Version | Text Only | Print | Product List | Glossary On
Versions: 1 2 3 4 5 6 7 8 9 10 11 12 13 14 15 16 17 18 19 20 21 22 23 24 25 26 27 28 29 30
000
FTUS44 KMOB 301700 RRA
TAFMOB
TAF
KMOB 301747Z 3018/3118 13017G21KT P6SM SCT026 BKN035 BKN050
     FM302100 17007KT P6SM VCTS BKN025CB
      TEMPO 3021/3024 4SM TSRA BKN015CB
     FM310100 14004KT P6SM VCSH FEW040 SCT100 BKN200 PROB30
      3103/3107 4SM TSRA BKN015CB
     FM310700 14004KT P6SM VCSH SCT015 BKN100
     FM311500 17007KT P6SM BKN030=

USA.gov is the U.S. government's official web portal to all federal, state and local government web resources and services.